Time;durP1;ratioP1;P1;durP2;ratioP2;P2;SDS_P1;SDS_P2;PMS_P1;PMS_P2;Temp;Humidity;BMP_temperature;BMP_pressure;BME280_temperature;BME280_humidity;BME280_pressure;Samples;Min_cycle;Max_cycle;Signal;HPM_P1;HPM_P2
2021/08/31 00:02:19;;;;;;;16.60;10.40;;;;;;;14.35;84.29;102596.63;5065680;28;20032;-63
2021/08/31 00:04:44;;;;;;;18.05;9.52;;;;;;;14.34;84.16;102594.84;5066196;28;20065;-63
2021/08/31 00:07:10;;;;;;;18.92;9.65;;;;;;;14.31;84.57;102587.78;5065075;28;20516;-62
2021/08/31 00:09:35;;;;;;;21.65;10.32;;;;;;;14.31;84.03;102589.50;5063413;28;20052;-63
2021/08/31 00:12:01;;;;;;;26.50;9.75;;;;;;;14.25;84.25;102595.63;5066204;28;20056;-62
2021/08/31 00:14:26;;;;;;;19.40;9.55;;;;;;;14.19;84.52;102587.63;5065955;28;20021;-63
2021/08/31 00:16:52;;;;;;;21.23;9.25;;;;;;;14.26;84.30;102592.13;5065490;28;20040;-63
2021/08/31 00:19:17;;;;;;;21.85;9.77;;;;;;;14.31;84.41;102594.81;5065726;28;20129;-62
2021/08/31 00:21:44;;;;;;;18.77;8.40;;;;;;;14.27;84.39;102585.94;5065502;28;20025;-62
2021/08/31 00:24:09;;;;;;;22.20;8.95;;;;;;;14.30;84.56;102598.34;5065207;28;20036;-63
2021/08/31 00:26:35;;;;;;;22.23;9.73;;;;;;;14.29;84.45;102593.91;5065612;28;20025;-63
2021/08/31 00:29:00;;;;;;;21.27;9.25;;;;;;;14.32;84.47;102594.81;5065120;28;20045;-63
2021/08/31 00:31:25;;;;;;;22.05;9.20;;;;;;;14.35;84.41;102596.63;5064690;28;20037;-62
2021/08/31 00:33:51;;;;;;;23.45;9.60;;;;;;;14.32;84.55;102597.47;5065818;28;20036;-62
2021/08/31 00:36:16;;;;;;;21.15;9.82;;;;;;;14.31;84.70;102601.00;5065671;28;20044;-62
2021/08/31 00:38:41;;;;;;;16.10;8.80;;;;;;;14.35;84.46;102604.56;5062710;28;20091;-62
2021/08/31 00:41:07;;;;;;;21.73;9.63;;;;;;;14.33;84.80;102606.28;5064000;28;20025;-62
2021/08/31 00:43:44;;;;;;;26.95;9.57;;;;;;;14.25;84.80;102598.25;5065571;28;20043;-62
2021/08/31 00:46:10;;;;;;;20.33;9.85;;;;;;;14.20;85.30;102605.28;5064943;28;20036;-62
2021/08/31 00:48:36;;;;;;;16.92;9.77;;;;;;;14.16;85.11;102606.13;5065016;28;20435;-63
2021/08/31 00:51:01;;;;;;;21.38;9.98;;;;;;;14.11;85.25;102605.16;5062520;28;20029;-63
2021/08/31 00:53:27;;;;;;;17.63;9.13;;;;;;;14.07;85.27;102609.53;5064087;28;20130;-62
2021/08/31 00:55:52;;;;;;;21.30;10.00;;;;;;;14.08;85.54;102610.41;5064950;28;20029;-63
2021/08/31 00:58:17;;;;;;;18.67;10.50;;;;;;;14.10;85.64;102619.25;5064010;28;20033;-62
2021/08/31 01:00:43;;;;;;;22.23;10.27;;;;;;;14.09;85.79;102609.56;5063270;28;20025;-62
2021/08/31 01:03:08;;;;;;;19.08;10.07;;;;;;;14.07;85.91;102611.28;5063175;28;20133;-61
2021/08/31 01:05:34;;;;;;;23.73;10.02;;;;;;;14.03;85.65;102613.88;5064907;28;20554;-62
2021/08/31 01:08:00;;;;;;;19.50;9.85;;;;;;;14.00;85.54;102608.56;5064496;28;20049;-63
2021/08/31 01:10:26;;;;;;;17.60;8.70;;;;;;;14.00;85.34;102611.19;5064463;28;20036;-62
2021/08/31 01:12:54;;;;;;;24.85;11.27;;;;;;;14.03;85.92;102613.00;5064390;28;20067;-62
2021/08/31 01:15:19;;;;;;;18.13;9.93;;;;;;;13.99;85.77;102609.44;5064406;28;20092;-62
2021/08/31 01:17:45;;;;;;;21.20;10.10;;;;;;;13.94;85.46;102611.13;5065308;28;20036;-63
2021/08/31 01:20:11;;;;;;;19.25;10.15;;;;;;;13.90;85.77;102617.25;5063804;28;20029;-62
2021/08/31 01:22:36;;;;;;;23.15;11.02;;;;;;;13.86;85.80;102617.19;5062792;28;20040;-62
2021/08/31 01:25:05;;;;;;;25.17;11.05;;;;;;;13.84;85.83;102614.53;5064115;28;20029;-63
2021/08/31 01:27:31;;;;;;;21.00;10.95;;;;;;;13.82;85.90;102627.72;5064334;28;20029;-63
2021/08/31 01:29:57;;;;;;;22.30;10.63;;;;;;;13.78;86.08;102623.28;5063741;28;20039;-63
2021/08/31 01:32:23;;;;;;;24.65;11.25;;;;;;;13.76;86.00;102630.28;5064144;28;20052;-62
2021/08/31 01:34:49;;;;;;;21.08;9.93;;;;;;;13.73;86.17;102626.72;5064497;28;20484;-62
2021/08/31 01:37:14;;;;;;;22.33;12.13;;;;;;;13.71;86.21;102631.97;5064314;28;20032;-62
2021/08/31 01:39:40;;;;;;;21.42;11.23;;;;;;;13.72;86.61;102628.44;5060171;28;20028;-62
2021/08/31 01:42:06;;;;;;;22.98;12.02;;;;;;;13.71;86.26;102625.81;5063304;28;20112;-62
2021/08/31 01:44:32;;;;;;;22.23;11.73;;;;;;;13.70;86.45;102637.22;5064257;28;20120;-63
2021/08/31 01:46:57;;;;;;;24.15;11.30;;;;;;;13.69;86.54;102643.41;5065067;28;20032;-65
2021/08/31 01:49:22;;;;;;;24.83;12.20;;;;;;;13.68;86.40;102637.19;5063726;28;20041;-63
2021/08/31 01:51:48;;;;;;;23.00;12.02;;;;;;;13.67;86.65;102642.47;5062856;28;20037;-63
2021/08/31 01:54:13;;;;;;;22.88;12.15;;;;;;;13.64;86.41;102638.03;5064018;28;20031;-64
2021/08/31 01:56:39;;;;;;;22.35;11.68;;;;;;;13.62;86.58;102640.66;5063646;28;20056;-63
2021/08/31 01:59:05;;;;;;;21.73;10.93;;;;;;;13.62;86.52;102640.66;5063191;28;20047;-63
2021/08/31 02:01:30;;;;;;;22.55;11.70;;;;;;;13.61;86.71;102636.25;5062766;28;20032;-63
2021/08/31 02:03:55;;;;;;;24.77;12.23;;;;;;;13.59;86.93;102643.25;5063374;28;20037;-63
2021/08/31 02:06:22;;;;;;;23.20;13.10;;;;;;;13.59;87.25;102637.97;5062851;28;20494;-63
2021/08/31 02:08:47;;;;;;;23.73;10.93;;;;;;;13.58;86.84;102645.88;5063009;28;20053;-63
2021/08/31 02:11:14;;;;;;;25.40;12.32;;;;;;;13.56;86.61;102644.97;5062975;28;20072;-63
2021/08/31 02:13:39;;;;;;;25.02;12.65;;;;;;;13.55;86.46;102640.53;5063242;28;20052;-62
2021/08/31 02:16:05;;;;;;;27.98;11.93;;;;;;;13.54;87.16;102639.66;5063327;28;20029;-63
2021/08/31 02:18:30;;;;;;;26.35;12.13;;;;;;;13.55;86.79;102646.69;5062930;28;20029;-63
2021/08/31 02:20:55;;;;;;;23.13;12.18;;;;;;;13.59;86.88;102637.06;5063384;28;20056;-63
2021/08/31 02:23:21;;;;;;;25.52;11.68;;;;;;;13.64;86.60;102638.03;5062531;28;20097;-62
2021/08/31 02:25:46;;;;;;;28.55;13.05;;;;;;;13.69;87.25;102643.41;5063108;28;20115;-63
2021/08/31 02:28:12;;;;;;;23.88;11.95;;;;;;;13.65;86.69;102638.06;5061062;28;20036;-62
2021/08/31 02:30:37;;;;;;;27.45;12.95;;;;;;;13.66;87.11;102631.00;5063343;28;20045;-63
2021/08/31 02:33:03;;;;;;;25.83;11.60;;;;;;;13.63;86.27;102633.63;5061880;28;20043;-63
2021/08/31 02:35:29;;;;;;;24.85;12.27;;;;;;;13.60;86.68;102637.09;5063411;28;20029;-62
2021/08/31 02:37:55;;;;;;;22.77;12.48;;;;;;;13.57;86.38;102634.44;5063350;28;20029;-63
2021/08/31 02:40:21;;;;;;;23.20;11.95;;;;;;;13.59;86.66;102624.78;5061731;28;20034;-62
2021/08/31 02:42:47;;;;;;;23.58;12.63;;;;;;;13.56;86.94;102634.41;5062296;28;20116;-63
2021/08/31 02:45:12;;;;;;;23.98;13.57;;;;;;;13.55;86.71;102630.84;5062542;28;20033;-63
2021/08/31 02:47:38;;;;;;;25.35;12.40;;;;;;;13.54;86.67;102620.28;5062475;28;20037;-62
2021/08/31 02:50:04;;;;;;;24.35;13.27;;;;;;;13.53;86.89;102632.59;5062734;28;20094;-62
2021/08/31 02:52:29;;;;;;;25.80;12.82;;;;;;;13.51;86.59;102626.38;5062308;28;20033;-63
2021/08/31 02:54:55;;;;;;;24.95;13.25;;;;;;;13.50;86.87;102635.19;5062443;28;20029;-63
2021/08/31 02:57:20;;;;;;;29.63;14.50;;;;;;;13.48;86.89;102629.00;5062525;28;20114;-63
2021/08/31 02:59:45;;;;;;;27.92;14.07;;;;;;;13.49;86.90;102629.88;5062098;28;20037;-63
2021/08/31 03:02:11;;;;;;;28.83;14.48;;;;;;;13.47;86.89;102632.50;5061206;28;20037;-63
2021/08/31 03:04:39;;;;;;;23.63;13.25;;;;;;;13.45;87.41;102637.75;5063138;28;20033;-62
2021/08/31 03:07:06;;;;;;;27.10;13.80;;;;;;;13.45;86.84;102644.78;5062045;28;20044;-63
2021/08/31 03:09:32;;;;;;;25.92;13.38;;;;;;;13.45;86.69;102639.50;5061584;28;20044;-63
2021/08/31 03:11:57;;;;;;;28.25;14.40;;;;;;;13.45;87.26;102637.75;5061392;28;20033;-63
2021/08/31 03:14:23;;;;;;;29.83;13.40;;;;;;;13.41;86.73;102633.28;5062336;28;20035;-63
2021/08/31 03:16:49;;;;;;;25.67;13.40;;;;;;;13.40;86.31;102633.25;5062515;28;20031;-63
2021/08/31 03:19:21;;;;;;;25.92;12.90;;;;;;;13.37;86.96;102634.13;5062375;28;20063;-63
2021/08/31 03:21:46;;;;;;;27.75;13.63;;;;;;;13.35;86.83;102638.50;5061704;28;20049;-63
2021/08/31 03:24:12;;;;;;;23.42;11.10;;;;;;;13.38;86.94;102635.91;5062075;28;20473;-62
2021/08/31 03:26:37;;;;;;;23.08;13.15;;;;;;;13.38;86.90;102633.28;5061226;28;20093;-63
2021/08/31 03:29:03;;;;;;;24.83;12.43;;;;;;;13.35;86.46;102630.56;5061963;28;20040;-63
2021/08/31 03:31:28;;;;;;;28.08;12.25;;;;;;;13.34;86.66;102627.91;5063228;28;20430;-63
2021/08/31 03:33:53;;;;;;;30.05;13.27;;;;;;;13.30;86.54;102626.97;5060095;28;20424;-62
2021/08/31 03:36:19;;;;;;;29.17;12.68;;;;;;;13.29;86.76;102635.72;5061866;28;20029;-62
2021/08/31 03:38:44;;;;;;;24.85;12.55;;;;;;;13.34;87.50;102636.69;5060537;28;20036;-62
2021/08/31 03:41:09;;;;;;;26.50;12.77;;;;;;;13.33;86.88;102644.63;5060397;28;20037;-63
2021/08/31 03:43:35;;;;;;;30.77;13.07;;;;;;;13.31;87.15;102649.88;5060846;28;20033;-62
2021/08/31 03:46:00;;;;;;;23.92;12.20;;;;;;;13.31;86.94;102649.88;5065182;28;20029;-62
2021/08/31 03:48:25;;;;;;;27.65;13.25;;;;;;;13.30;87.05;102639.25;5065395;28;20041;-64
2021/08/31 03:50:51;;;;;;;24.23;12.65;;;;;;;13.31;87.03;102644.59;5063964;28;20052;-62
2021/08/31 03:53:16;;;;;;;21.73;10.93;;;;;;;13.34;88.00;102644.63;5065810;28;20033;-62
2021/08/31 03:55:41;;;;;;;23.52;12.43;;;;;;;13.40;87.07;102643.81;5065662;28;20045;-61
2021/08/31 03:58:07;;;;;;;24.75;11.57;;;;;;;13.41;86.91;102640.34;5065572;28;20044;-61
2021/08/31 04:00:35;;;;;;;27.63;12.07;;;;;;;13.42;86.92;102643.00;5065934;28;20076;-63
2021/08/31 04:03:02;;;;;;;23.25;10.77;;;;;;;13.42;86.83;102636.81;5065787;28;20033;-62
2021/08/31 04:05:28;;;;;;;22.00;11.80;;;;;;;13.44;86.83;102643.91;5065341;28;20084;-62
2021/08/31 04:07:53;;;;;;;21.63;11.98;;;;;;;13.45;86.62;102650.97;5064370;28;20053;-62
2021/08/31 04:10:18;;;;;;;21.15;10.93;;;;;;;13.41;86.41;102648.25;5064023;28;20043;-63
2021/08/31 04:12:44;;;;;;;22.88;11.10;;;;;;;13.37;86.35;102647.31;5065541;28;20037;-63
2021/08/31 04:15:10;;;;;;;21.85;11.50;;;;;;;13.35;86.44;102650.81;5065117;28;20048;-62
2021/08/31 04:17:35;;;;;;;23.58;11.00;;;;;;;13.30;86.46;102656.00;5065784;28;20498;-62
2021/08/31 04:20:01;;;;;;;19.42;11.35;;;;;;;13.26;86.65;102659.44;5064794;28;20048;-63
2021/08/31 04:22:26;;;;;;;19.83;10.90;;;;;;;13.23;86.60;102664.66;5065814;28;20033;-63
2021/08/31 04:24:51;;;;;;;22.52;11.30;;;;;;;13.20;86.71;102661.97;5064809;28;20032;-62
2021/08/31 04:27:17;;;;;;;22.33;10.80;;;;;;;13.17;86.87;102664.56;5065626;28;20039;-62
2021/08/31 04:29:43;;;;;;;19.45;10.55;;;;;;;13.14;86.84;102664.53;5065141;28;20078;-62
2021/08/31 04:32:08;;;;;;;22.85;10.43;;;;;;;13.14;87.10;102670.69;5064903;28;20480;-62
2021/08/31 04:34:33;;;;;;;24.55;10.20;;;;;;;13.15;86.76;102669.81;5065865;28;20512;-62
2021/08/31 04:36:59;;;;;;;23.25;9.40;;;;;;;13.15;86.61;102669.81;5065891;28;20039;-62
2021/08/31 04:39:24;;;;;;;23.45;9.40;;;;;;;13.17;86.99;102670.72;5062450;28;20124;-62
2021/08/31 04:41:50;;;;;;;23.05;10.60;;;;;;;13.18;86.89;102666.34;5065011;28;20037;-63
2021/08/31 04:44:16;;;;;;;18.40;9.68;;;;;;;13.19;86.65;102670.75;5045356;28;20033;-62
2021/08/31 04:46:41;;;;;;;20.73;10.98;;;;;;;13.22;86.91;102679.59;5062257;28;20028;-62
2021/08/31 04:49:06;;;;;;;16.38;9.05;;;;;;;13.23;86.33;102677.84;5064653;28;20100;-62
2021/08/31 04:51:33;;;;;;;21.80;8.73;;;;;;;13.32;86.36;102678.03;5065025;28;20041;-63
2021/08/31 04:53:58;;;;;;;22.83;8.40;;;;;;;13.35;86.05;102679.84;5063078;28;20160;-62
2021/08/31 04:56:24;;;;;;;23.95;9.52;;;;;;;13.35;86.06;102685.13;5062411;28;20069;-62
2021/08/31 04:58:49;;;;;;;21.42;9.27;;;;;;;13.35;86.44;102685.13;5064058;28;20060;-62
2021/08/31 05:01:14;;;;;;;22.60;9.93;;;;;;;13.36;85.82;102689.53;5062530;28;20041;-62
2021/08/31 05:03:42;;;;;;;18.40;9.25;;;;;;;13.35;85.67;102685.13;5063791;28;20079;-62
2021/08/31 05:06:10;;;;;;;19.88;9.73;;;;;;;13.31;85.54;102688.56;5064292;28;20032;-62
2021/08/31 05:08:36;;;;;;;20.90;10.07;;;;;;;13.27;85.99;102677.94;5064643;28;20068;-62
2021/08/31 05:11:01;;;;;;;24.52;9.45;;;;;;;13.23;86.24;102678.75;5062308;28;20033;-61
2021/08/31 05:13:27;;;;;;;19.10;9.20;;;;;;;13.22;86.17;102673.44;5064730;28;20092;-61
2021/08/31 05:15:53;;;;;;;21.23;9.27;;;;;;;13.22;86.53;102681.38;5063972;28;20029;-62
2021/08/31 05:18:18;;;;;;;19.33;9.50;;;;;;;13.21;86.58;102680.47;5064735;28;20484;-62
2021/08/31 05:20:44;;;;;;;18.90;9.00;;;;;;;13.21;86.45;102683.13;5064094;28;20025;-63
2021/08/31 05:23:09;;;;;;;18.27;9.48;;;;;;;13.23;86.49;102680.47;5063718;28;20048;-61
2021/08/31 05:25:35;;;;;;;20.55;8.43;;;;;;;13.25;86.71;102686.69;5064691;28;20029;-61
2021/08/31 05:28:00;;;;;;;19.02;9.32;;;;;;;13.27;86.28;102680.56;5063993;28;20041;-62
2021/08/31 05:30:26;;;;;;;25.42;9.38;;;;;;;13.32;86.56;102687.72;5064189;28;20069;-62
2021/08/31 05:32:51;;;;;;;23.42;8.30;;;;;;;13.34;86.52;102684.22;5064098;28;20109;-62
2021/08/31 05:35:16;;;;;;;22.42;8.77;;;;;;;13.40;86.16;102689.63;5063834;28;20083;-63
2021/08/31 05:37:42;;;;;;;16.13;7.63;;;;;;;13.49;85.98;102693.25;5063998;28;20104;-62
2021/08/31 05:40:08;;;;;;;13.85;7.00;;;;;;;13.54;86.02;102700.41;5061766;28;20029;-62
2021/08/31 05:42:33;;;;;;;19.75;8.10;;;;;;;13.58;85.68;102699.56;5063848;28;20104;-63
2021/08/31 05:44:59;;;;;;;18.50;7.25;;;;;;;13.62;85.95;102700.50;5063379;28;20121;-62
2021/08/31 05:47:24;;;;;;;20.75;8.20;;;;;;;13.65;85.75;102701.44;5061411;28;20037;-62
2021/08/31 05:49:50;;;;;;;17.77;7.55;;;;;;;13.70;85.69;102698.88;5064128;28;20035;-62
2021/08/31 05:52:15;;;;;;;17.27;6.70;;;;;;;13.82;85.23;102704.34;5062370;28;20058;-62
2021/08/31 05:54:41;;;;;;;20.75;6.90;;;;;;;13.88;85.01;102707.94;5063168;28;20114;-62
2021/08/31 05:57:10;;;;;;;18.25;7.63;;;;;;;13.98;84.20;102702.78;5061104;28;20112;-62
2021/08/31 05:59:39;;;;;;;23.27;7.22;;;;;;;14.06;83.70;102708.19;5063718;28;20028;-62
2021/08/31 06:02:05;;;;;;;23.15;6.78;;;;;;;14.12;83.24;102712.66;5063809;28;20049;-63
2021/08/31 06:04:31;;;;;;;16.45;6.72;;;;;;;14.15;83.68;102710.06;5064131;28;20115;-62
2021/08/31 06:06:56;;;;;;;15.77;6.47;;;;;;;14.17;83.93;102719.78;5058003;28;20477;-63
2021/08/31 06:09:21;;;;;;;18.50;6.63;;;;;;;14.22;83.59;102726.03;5060423;28;20037;-62
2021/08/31 06:11:47;;;;;;;17.25;6.53;;;;;;;14.30;83.34;102728.78;5052622;28;20047;-65
2021/08/31 06:14:12;;;;;;;16.98;5.65;;;;;;;14.50;82.64;102725.47;5037708;28;20025;-64
2021/08/31 06:16:38;;;;;;;15.20;5.80;;;;;;;14.62;81.35;102723.91;5058180;28;20030;-65
2021/08/31 06:19:03;;;;;;;21.45;7.75;;;;;;;14.62;81.32;102728.31;5062046;28;20037;-64
2021/08/31 06:21:30;;;;;;;20.02;7.03;;;;;;;14.73;80.96;102729.34;5063684;28;20032;-65
2021/08/31 06:23:55;;;;;;;16.98;6.80;;;;;;;14.87;80.32;102732.13;5063829;28;20033;-65
2021/08/31 06:26:20;;;;;;;16.65;5.80;;;;;;;14.93;80.05;102729.56;5063237;28;20045;-66
2021/08/31 06:28:46;;;;;;;15.48;5.75;;;;;;;14.98;79.68;102729.59;5061280;28;20037;-62
2021/08/31 06:31:11;;;;;;;17.77;5.43;;;;;;;15.08;79.31;102736.75;5063582;28;20087;-62
2021/08/31 06:33:37;;;;;;;21.88;6.30;;;;;;;15.10;79.35;102739.41;5063219;28;20025;-63
2021/08/31 06:36:03;;;;;;;18.10;5.63;;;;;;;15.11;79.89;102739.44;5061309;28;20134;-62
2021/08/31 06:38:28;;;;;;;17.90;6.82;;;;;;;15.19;79.88;102737.72;5063080;28;20500;-63
2021/08/31 06:40:53;;;;;;;21.17;6.43;;;;;;;15.25;80.55;102744.84;5061902;28;20227;-62
2021/08/31 06:43:19;;;;;;;20.15;6.18;;;;;;;15.44;78.87;102737.06;5062027;28;20095;-62
2021/08/31 06:45:45;;;;;;;20.63;6.60;;;;;;;15.65;79.09;102745.19;5063437;28;20063;-63
2021/08/31 06:48:10;;;;;;;22.40;6.60;;;;;;;15.89;78.12;102747.16;5063316;28;20092;-63
2021/08/31 06:50:36;;;;;;;13.88;5.75;;;;;;;16.17;76.53;102749.97;5063097;28;20041;-61
2021/08/31 06:53:02;;;;;;;22.60;6.22;;;;;;;16.39;75.50;102748.31;5063278;28;20032;-61
2021/08/31 06:55:28;;;;;;;16.83;5.75;;;;;;;16.74;74.00;102751.09;5060931;28;20128;-61
2021/08/31 06:57:53;;;;;;;19.35;6.20;;;;;;;16.94;74.08;102737.03;5062783;28;20025;-61
2021/08/31 07:00:18;;;;;;;15.85;5.30;;;;;;;17.14;73.51;102748.56;5063287;28;20119;-62
2021/08/31 07:02:44;;;;;;;13.65;5.55;;;;;;;17.34;71.86;102742.38;5060555;28;20052;-62
2021/08/31 07:05:10;;;;;;;19.17;5.97;;;;;;;17.41;72.11;102752.13;5062879;28;20033;-61
2021/08/31 07:07:35;;;;;;;16.75;5.53;;;;;;;17.42;71.71;102753.00;5060359;28;20090;-61
2021/08/31 07:10:02;;;;;;;15.13;4.82;;;;;;;17.54;70.83;102745.94;5060798;28;20021;-63
2021/08/31 07:12:27;;;;;;;17.63;5.80;;;;;;;17.66;70.40;102746.81;5060255;28;20025;-62
2021/08/31 07:14:53;;;;;;;16.98;5.32;;;;;;;17.67;70.76;102752.09;5059972;28;20116;-62
2021/08/31 07:17:19;;;;;;;16.17;5.78;;;;;;;17.67;70.25;102753.88;5060903;28;20037;-62
2021/08/31 07:19:44;;;;;;;16.58;4.68;;;;;;;17.68;70.36;102756.53;5063869;28;20044;-63
2021/08/31 07:22:10;;;;;;;17.35;4.78;;;;;;;17.77;71.12;102754.75;5067058;28;20037;-63
2021/08/31 07:24:35;;;;;;;14.05;5.82;;;;;;;17.79;70.28;102761.84;5064906;28;20092;-62
2021/08/31 07:27:01;;;;;;;15.20;4.85;;;;;;;17.89;69.44;102749.44;5064923;28;20024;-62
2021/08/31 07:29:26;;;;;;;17.90;5.68;;;;;;;17.96;69.92;102752.97;5065709;28;20100;-60
2021/08/31 07:31:52;;;;;;;13.48;5.50;;;;;;;17.94;70.05;102755.66;5067358;28;20037;-61
2021/08/31 07:34:18;;;;;;;15.05;5.10;;;;;;;17.93;70.23;102759.19;5064122;28;20029;-64
2021/08/31 07:36:45;;;;;;;12.95;4.85;;;;;;;18.09;69.14;102757.38;5063218;28;20029;-64
2021/08/31 07:39:11;;;;;;;13.95;4.05;;;;;;;18.31;67.54;102759.06;5065318;28;20037;-64
2021/08/31 07:41:37;;;;;;;14.52;4.70;;;;;;;18.22;68.44;102759.13;5065082;28;20037;-64
2021/08/31 07:44:02;;;;;;;20.98;5.82;;;;;;;18.29;68.86;102758.19;5064028;28;20064;-64
2021/08/31 07:46:28;;;;;;;14.85;4.88;;;;;;;18.33;68.29;102760.88;5066487;28;20035;-64
2021/08/31 07:48:53;;;;;;;14.50;4.72;;;;;;;18.48;66.62;102758.13;5059307;28;20059;-64
2021/08/31 07:51:19;;;;;;;20.13;4.72;;;;;;;18.40;67.69;102765.28;5063120;28;20033;-63
2021/08/31 07:53:44;;;;;;;14.20;4.80;;;;;;;18.40;67.20;102763.50;5060919;28;20390;-64
2021/08/31 07:56:10;;;;;;;16.40;4.40;;;;;;;18.50;66.54;102757.22;5065824;28;20055;-63
2021/08/31 07:58:36;;;;;;;10.57;4.03;;;;;;;18.60;67.00;102755.44;5065646;28;20025;-64
2021/08/31 08:01:03;;;;;;;13.45;4.28;;;;;;;18.71;66.55;102760.69;5066780;28;20036;-63
2021/08/31 08:03:28;;;;;;;11.80;4.30;;;;;;;18.81;67.00;102766.88;5062559;28;20078;-64
2021/08/31 08:05:54;;;;;;;16.33;4.93;;;;;;;18.88;65.93;102761.53;5063023;28;20167;-64
2021/08/31 08:08:19;;;;;;;14.48;5.00;;;;;;;18.87;64.30;102766.84;5065856;28;20136;-64
2021/08/31 08:10:45;;;;;;;13.13;4.50;;;;;;;18.83;64.92;102767.78;5062245;28;20040;-63
2021/08/31 08:13:10;;;;;;;14.80;4.13;;;;;;;18.81;65.04;102766.88;5062921;28;20037;-64
2021/08/31 08:15:35;;;;;;;12.25;4.15;;;;;;;18.85;64.65;102774.84;5065916;28;20060;-64
2021/08/31 08:18:01;;;;;;;12.82;4.75;;;;;;;18.89;64.51;102768.59;5066696;28;20568;-64
2021/08/31 08:20:27;;;;;;;11.48;4.70;;;;;;;18.94;64.14;102778.34;5065009;28;20114;-64
2021/08/31 08:22:53;;;;;;;16.67;4.30;;;;;;;19.05;66.14;102774.75;5063957;28;20058;-64
2021/08/31 08:25:18;;;;;;;14.10;5.15;;;;;;;19.17;64.35;102771.09;5066422;28;20057;-64
2021/08/31 08:27:44;;;;;;;12.35;4.13;;;;;;;19.27;64.58;102775.47;5065773;28;20044;-63
2021/08/31 08:30:10;;;;;;;12.90;4.07;;;;;;;19.41;64.52;102775.38;5061947;28;20033;-65
2021/08/31 08:32:36;;;;;;;10.00;4.35;;;;;;;19.50;62.13;102778.84;5064609;28;20452;-63
2021/08/31 08:35:01;;;;;;;8.70;4.25;;;;;;;19.41;62.26;102766.47;5065972;28;20097;-61
2021/08/31 08:37:27;;;;;;;14.20;4.38;;;;;;;19.32;60.49;102778.09;5066095;28;20033;-62
2021/08/31 08:39:52;;;;;;;13.32;4.38;;;;;;;19.07;61.62;102786.28;5063333;28;20029;-62
2021/08/31 08:42:18;;;;;;;14.68;4.15;;;;;;;18.84;62.22;102777.53;5066209;28;20087;-63
2021/08/31 08:44:44;;;;;;;16.00;4.53;;;;;;;18.49;64.14;102786.53;5065985;28;20032;-62
2021/08/31 08:47:09;;;;;;;13.30;4.15;;;;;;;18.62;64.34;102787.34;5065762;28;20032;-62
2021/08/31 08:49:35;;;;;;;16.63;4.28;;;;;;;18.76;65.13;102787.31;5065721;28;20614;-62
2021/08/31 08:52:01;;;;;;;12.82;4.03;;;;;;;19.00;62.72;102781.00;5065437;28;20040;-64
2021/08/31 08:54:27;;;;;;;13.00;4.40;;;;;;;19.12;62.69;102782.69;5065430;28;20055;-66
2021/08/31 08:56:53;;;;;;;11.65;4.18;;;;;;;19.21;63.10;102788.84;5064963;28;20029;-63
2021/08/31 08:59:20;;;;;;;13.82;4.18;;;;;;;19.29;62.16;102783.44;5064891;28;20476;-63
2021/08/31 09:01:52;;;;;;;13.70;4.75;;;;;;;19.19;61.22;102784.44;5054988;28;20036;-62
2021/08/31 09:04:21;;;;;;;14.13;4.72;;;;;;;19.03;61.29;102796.94;5065900;28;20040;-62
2021/08/31 09:06:47;;;;;;;11.90;4.03;;;;;;;18.82;62.66;102800.63;5064300;28;20021;-61
2021/08/31 09:09:13;;;;;;;13.63;4.43;;;;;;;18.57;64.15;102798.03;5064522;28;20087;-63
2021/08/31 09:11:48;;;;;;;12.05;3.97;;;;;;;18.50;63.88;102810.47;5062620;28;20033;-64
2021/08/31 09:14:22;;;;;;;13.70;4.50;;;;;;;18.36;64.08;102806.09;5065102;28;20025;-64
2021/08/31 09:16:51;;;;;;;13.65;4.32;;;;;;;18.15;64.19;102804.34;5060798;28;20036;-64
2021/08/31 09:19:16;;;;;;;14.10;4.27;;;;;;;18.14;65.25;102808.81;5070944;28;20100;-63
2021/08/31 09:21:46;;;;;;;14.55;4.43;;;;;;;18.12;64.28;102816.78;5072982;28;20029;-64
2021/08/31 09:24:12;;;;;;;14.20;4.32;;;;;;;18.00;65.76;102807.97;5070576;28;20147;-66
2021/08/31 09:26:40;;;;;;;13.25;4.45;;;;;;;18.12;65.17;102811.47;5060474;28;20028;-64
2021/08/31 09:29:20;;;;;;;13.75;4.00;;;;;;;18.27;65.60;102809.66;5064114;28;20569;-64
2021/08/31 09:31:53;;;;;;;13.35;4.25;;;;;;;18.45;64.47;102804.28;5065102;28;20017;-62
2021/08/31 09:34:45;;;;;;;14.25;4.40;;;;;;;18.62;64.71;102808.66;5065265;28;20025;-63
2021/08/31 09:37:32;;;;;;;11.25;4.05;;;;;;;18.92;62.63;102806.78;5052475;28;20032;-63
2021/08/31 09:40:15;;;;;;;13.90;4.45;;;;;;;19.07;62.42;102810.25;5061969;28;20036;-63
2021/08/31 09:42:53;;;;;;;12.70;4.03;;;;;;;19.07;61.59;102798.69;5063635;28;20033;-63
2021/08/31 09:45:23;;;;;;;13.70;4.38;;;;;;;18.97;62.07;102805.84;5060361;28;20033;-63
2021/08/31 09:47:49;;;;;;;11.30;4.45;;;;;;;18.91;61.62;102805.91;5063792;28;20036;-64
2021/08/31 09:50:28;;;;;;;14.02;4.00;;;;;;;18.95;61.81;102807.66;5064671;28;20029;-63
2021/08/31 09:53:04;;;;;;;13.20;4.60;;;;;;;18.96;63.57;102809.44;5064053;28;20075;-64
2021/08/31 09:55:29;;;;;;;10.38;4.25;;;;;;;19.20;61.99;102810.16;5064088;28;20037;-63
2021/08/31 09:58:24;;;;;;;6.57;4.10;;;;;;;19.37;61.62;102802.94;5063703;28;20044;-62
2021/08/31 10:00:52;;;;;;;12.55;4.22;;;;;;;19.45;58.88;102803.78;5062418;28;20044;-64
2021/08/31 10:03:19;;;;;;;11.75;4.60;;;;;;;19.40;59.82;102807.38;5063702;28;20056;-63
2021/08/31 10:05:46;;;;;;;13.45;5.20;;;;;;;19.23;59.82;102803.03;5064357;28;20024;-64
2021/08/31 10:08:14;;;;;;;9.93;4.60;;;;;;;19.35;58.86;102810.06;5062774;28;20040;-63
2021/08/31 10:10:41;;;;;;;12.30;4.78;;;;;;;19.36;59.86;102809.16;5062109;28;20039;-63
2021/08/31 10:13:14;;;;;;;12.32;5.38;;;;;;;19.28;59.51;102806.56;5061531;28;20040;-63
2021/08/31 10:15:48;;;;;;;8.80;4.90;;;;;;;19.27;60.17;102807.44;5062437;28;20029;-63
2021/08/31 10:18:15;;;;;;;13.30;5.00;;;;;;;19.14;61.55;102812.88;5043873;28;20037;-64
2021/08/31 10:20:48;;;;;;;11.63;4.72;;;;;;;19.25;60.92;102819.91;5063274;28;20116;-62
2021/08/31 10:23:22;;;;;;;11.48;4.85;;;;;;;19.34;60.73;102820.72;5063383;28;20028;-63
2021/08/31 10:25:47;;;;;;;12.07;5.00;;;;;;;19.26;60.87;102819.00;5062452;28;20025;-63
2021/08/31 10:28:25;;;;;;;12.73;4.95;;;;;;;19.24;61.87;102817.22;5063085;28;20033;-64
2021/08/31 10:30:52;;;;;;;9.32;4.35;;;;;;;19.31;62.81;102815.44;5044833;28;20090;-63
2021/08/31 10:33:30;;;;;;;15.02;4.95;;;;;;;19.36;62.98;102821.63;5060599;28;20059;-64
2021/08/31 10:35:56;;;;;;;13.13;4.30;;;;;;;19.44;61.73;102820.66;5049136;28;20041;-63
2021/08/31 10:38:41;;;;;;;16.63;4.38;;;;;;;19.45;61.13;102833.09;5060894;28;20036;-64
2021/08/31 10:41:48;;;;;;;12.90;4.07;;;;;;;19.28;62.65;102829.63;5060952;28;20044;-63
2021/08/31 10:44:40;;;;;;;18.20;5.80;;;;;;;19.29;61.85;102826.97;5058512;28;20048;-63
2021/08/31 10:47:14;;;;;;;13.60;5.05;;;;;;;19.29;61.59;102836.75;5062555;28;20048;-63
2021/08/31 10:49:55;;;;;;;12.90;4.82;;;;;;;19.22;62.19;102830.56;5060590;28;20036;-64
2021/08/31 10:52:43;;;;;;;16.27;5.28;;;;;;;19.12;62.00;102833.31;5062821;28;20037;-63
2021/08/31 10:55:24;;;;;;;15.02;4.90;;;;;;;19.11;61.39;102836.84;5056572;28;20033;-63
2021/08/31 10:58:01;;;;;;;16.15;5.10;;;;;;;19.17;63.05;102831.47;5059762;28;20036;-64
2021/08/31 11:00:28;;;;;;;9.93;4.45;;;;;;;19.21;62.81;102833.25;5061136;28;20048;-64
2021/08/31 11:02:57;;;;;;;12.77;4.75;;;;;;;19.23;63.15;102832.34;5063075;28;20028;-64
2021/08/31 11:05:23;;;;;;;12.50;4.53;;;;;;;19.40;62.77;102834.91;5062750;28;20020;-62
2021/08/31 11:07:51;;;;;;;12.95;4.80;;;;;;;19.42;62.75;102838.44;5061929;28;20056;-62
2021/08/31 11:10:20;;;;;;;14.45;4.50;;;;;;;19.59;61.21;102838.31;5061077;28;20033;-63
2021/08/31 11:12:47;;;;;;;13.48;4.68;;;;;;;19.60;61.14;102844.53;5062783;28;20087;-63
2021/08/31 11:15:25;;;;;;;11.68;4.53;;;;;;;19.69;60.58;102844.47;5062187;28;20033;-64